Airfield :







YOU CAN JOIN US ON...

 
LOGIN :

Register | Disclaimer

   EN    FR    IT 

 









Legend :    VFR   Marginal VFR   IFR   Intensive IFR   Very Intensive IFR
Visi :
Ceiling :
>= 8 km
>= 3000ft
5 to 8 km
1000 to 3000 ft
1500m to 5 km
500 to 1000 ft
800 to 1500m
200 to 500 ft
< 800m
< 200 ft
Symbols :   Thunderstorms  Fog  Heavy snow  Heavy precipitations  Wind > 20 kt






- Airport Elevation : 1709 ft
- IATA code : YKL


CYKL - Schefferville

CURRENT METAR :
  • 171100Z AUTO VRB02KT 8SM CLR M29/M32 A2977 RMK SLP144

EXPIRED METARs :
  • 171000Z AUTO 31004KT 240V020 9SM CLR M28/M31 A2975 RMK SLP135
  • 170929Z AUTO 33007KT 290V360 9SM SCT010 M28/M31 A2973 RMK SLP128
  • 170918Z AUTO 32006KT 280V340 6SM HZ BKN010 M27/M31 A2973 RMK SLP126
  • 170906Z AUTO 30007KT 260V340 5SM HZ SCT010 M27/M31 A2972 RMK SLP125

TAF TAF CYKL
Valid from the 17 at 08:00 until the 17 at 20:00 UTC


170738Z 1708/1720 VRB03KT 6SM HZ SCT010
TEMPO 1708/1713 2SM IC
FM171300 27010KT P6SM SCT010
TEMPO 1713/1720 3SM HZ RMK FCST BASED ON AUTO OBS. NXT FCST BY 171400Z



MET'MAP, your aeronautical weather chart ! - Copyright ORBIFLY December 2007 - Disclaimer

ORBIFLY MET'MAP TEAM :

Programming & Development : Alexandra Zaïnal
Concept & original design : Baudouin d'Aumeries
Assistance for programming : Marc-Olivier Méhu
Technical & hardware support : Manuel Goepfert

Contact : metmap@orbifly.com




SOURCES & CREDITS :

   NOAA